메인 페이지
METAR-TAF:

METAR-TAF

공항 :

버밍햄, 앨라배마, 미국

위도: 33-33-56N, 경도: 086-44-42W, 고도: 196m

현재 날씨관측

예보는 54분 전, 06:53시(UTC)에 발표되었습니다.
서남서3kt
온도 21°C
습도 83%
기압 1017 hPa
시정: 16.1km
고도 25000ft 상공 구름 조금

METAR: KBHM 200653Z 25003KT 10SM FEW250 21/18 A3004 RMK AO2 SLP162 T02110178

시각: 02:47 (07:47 UTC)

예보

예보는 2 시간 27분 전, 05:20시(UTC)에 발표되었습니다.
예보 대상 시간: 20일 06시부터 21일 06시까지 (UTC)
남서7kt
시정: 10km
고도 8000ft 상공 구름 조금
고도 9000ft 상공 구름 많음
고도 25000ft 상공 흐림
20일 1100시부터 (UTC)
서남서3kt
시정: 10km
고도 1500ft 상공 흐림
20일 1700시부터 (UTC)
북서5kt
시정: 10km
고도 2500ft 상공 구름 보통
고도 5000ft 상공 구름 많음

TAF: KBHM 200520Z 2006/2106 23007KT P6SM FEW080 BKN090 OVC250 FM201100 24003KT P6SM OVC015 FM201700 32005KT P6SM SCT025 BKN050

4,000개 이상의 공항 관측 자료 및 예보 (METAR 및 TAF 보고).

지도상에서 검색 가능한 기상관측소가 노란 점과 빨간 점으로 표시되어 있습니다.

기상관측소 명을 보려면 표시 위로 마우스를 이동하세요.

날씨 관측과 예보를 보려면 클릭하세요.

지도 변경 : 확대하려면 엑스 표시가 있는 녹색 버튼, 축소하려면 빼기 표시가 있는 녹색 버튼, 다음 페이지의 지도를 보려면 녹색 화살표를 클릭하세요.


METAR-TAF: